sensor_id;sensor_type;location;lat;lon;timestamp;P1;durP1;ratioP1;P2;durP2;ratioP2
42964;SDS011;28604;51.204;22.552;2023-08-31T00:01:09;11.77;;;10.18;;
42964;SDS011;28604;51.204;22.552;2023-08-31T00:03:35;12.70;;;9.88;;
42964;SDS011;28604;51.204;22.552;2023-08-31T00:06:01;13.00;;;9.10;;
42964;SDS011;28604;51.204;22.552;2023-08-31T00:08:29;17.23;;;12.27;;
42964;SDS011;28604;51.204;22.552;2023-08-31T00:10:56;16.77;;;12.65;;
42964;SDS011;28604;51.204;22.552;2023-08-31T00:13:22;16.88;;;13.68;;
42964;SDS011;28604;51.204;22.552;2023-08-31T00:15:49;19.70;;;15.00;;
42964;SDS011;28604;51.204;22.552;2023-08-31T00:18:15;20.25;;;15.20;;
42964;SDS011;28604;51.204;22.552;2023-08-31T00:20:41;19.63;;;14.70;;
42964;SDS011;28604;51.204;22.552;2023-08-31T00:23:08;22.00;;;15.80;;
42964;SDS011;28604;51.204;22.552;2023-08-31T00:25:34;28.00;;;17.35;;
42964;SDS011;28604;51.204;22.552;2023-08-31T00:28:00;23.15;;;16.20;;
42964;SDS011;28604;51.204;22.552;2023-08-31T00:30:33;29.23;;;15.75;;
42964;SDS011;28604;51.204;22.552;2023-08-31T00:32:59;24.60;;;16.05;;
42964;SDS011;28604;51.204;22.552;2023-08-31T00:35:27;21.05;;;13.68;;
42964;SDS011;28604;51.204;22.552;2023-08-31T00:37:53;16.70;;;11.77;;
42964;SDS011;28604;51.204;22.552;2023-08-31T00:40:24;16.60;;;11.48;;
42964;SDS011;28604;51.204;22.552;2023-08-31T00:42:50;13.90;;;9.40;;
42964;SDS011;28604;51.204;22.552;2023-08-31T00:45:17;18.95;;;10.40;;
42964;SDS011;28604;51.204;22.552;2023-08-31T00:47:45;21.92;;;12.32;;
42964;SDS011;28604;51.204;22.552;2023-08-31T00:50:13;27.45;;;12.93;;
42964;SDS011;28604;51.204;22.552;2023-08-31T00:52:39;32.10;;;16.55;;
42964;SDS011;28604;51.204;22.552;2023-08-31T00:55:06;41.33;;;18.73;;
42964;SDS011;28604;51.204;22.552;2023-08-31T00:57:33;40.53;;;18.20;;
42964;SDS011;28604;51.204;22.552;2023-08-31T00:59:59;43.30;;;18.95;;
42964;SDS011;28604;51.204;22.552;2023-08-31T01:05:15;56.03;;;21.08;;
42964;SDS011;28604;51.204;22.552;2023-08-31T01:07:54;56.17;;;21.05;;
42964;SDS011;28604;51.204;22.552;2023-08-31T01:13:17;62.15;;;23.40;;
42964;SDS011;28604;51.204;22.552;2023-08-31T01:15:50;58.60;;;20.80;;
42964;SDS011;28604;51.204;22.552;2023-08-31T01:18:21;55.33;;;19.58;;
42964;SDS011;28604;51.204;22.552;2023-08-31T01:20:52;52.97;;;20.35;;
42964;SDS011;28604;51.204;22.552;2023-08-31T01:23:29;45.25;;;18.33;;
42964;SDS011;28604;51.204;22.552;2023-08-31T01:26:06;45.03;;;18.50;;
42964;SDS011;28604;51.204;22.552;2023-08-31T01:28:33;44.45;;;19.77;;
42964;SDS011;28604;51.204;22.552;2023-08-31T01:31:03;38.45;;;18.08;;
42964;SDS011;28604;51.204;22.552;2023-08-31T01:33:31;37.45;;;19.30;;
42964;SDS011;28604;51.204;22.552;2023-08-31T01:35:57;41.03;;;20.40;;
42964;SDS011;28604;51.204;22.552;2023-08-31T01:38:27;36.83;;;18.75;;
42964;SDS011;28604;51.204;22.552;2023-08-31T01:41:00;31.85;;;16.30;;
42964;SDS011;28604;51.204;22.552;2023-08-31T01:43:31;23.73;;;13.20;;
42964;SDS011;28604;51.204;22.552;2023-08-31T01:45:59;20.98;;;13.07;;
42964;SDS011;28604;51.204;22.552;2023-08-31T01:48:26;18.08;;;11.88;;
42964;SDS011;28604;51.204;22.552;2023-08-31T01:50:52;16.95;;;9.52;;
42964;SDS011;28604;51.204;22.552;2023-08-31T01:53:18;12.75;;;8.90;;
42964;SDS011;28604;51.204;22.552;2023-08-31T01:55:44;9.30;;;8.27;;
42964;SDS011;28604;51.204;22.552;2023-08-31T01:58:10;8.52;;;7.65;;
42964;SDS011;28604;51.204;22.552;2023-08-31T02:00:35;8.90;;;7.15;;
42964;SDS011;28604;51.204;22.552;2023-08-31T02:03:04;7.95;;;7.18;;
42964;SDS011;28604;51.204;22.552;2023-08-31T02:05:31;7.97;;;6.07;;
42964;SDS011;28604;51.204;22.552;2023-08-31T02:07:57;10.27;;;6.90;;
42964;SDS011;28604;51.204;22.552;2023-08-31T02:10:23;8.95;;;6.32;;
42964;SDS011;28604;51.204;22.552;2023-08-31T02:12:49;7.20;;;5.60;;
42964;SDS011;28604;51.204;22.552;2023-08-31T02:15:15;10.15;;;6.15;;
42964;SDS011;28604;51.204;22.552;2023-08-31T02:17:41;12.77;;;6.57;;
42964;SDS011;28604;51.204;22.552;2023-08-31T02:20:08;10.95;;;8.02;;
42964;SDS011;28604;51.204;22.552;2023-08-31T02:22:35;14.07;;;9.38;;
42964;SDS011;28604;51.204;22.552;2023-08-31T02:25:01;24.42;;;14.10;;
42964;SDS011;28604;51.204;22.552;2023-08-31T02:27:27;25.00;;;15.35;;
42964;SDS011;28604;51.204;22.552;2023-08-31T02:29:53;28.85;;;15.95;;
42964;SDS011;28604;51.204;22.552;2023-08-31T02:32:19;36.47;;;19.30;;
42964;SDS011;28604;51.204;22.552;2023-08-31T02:34:45;43.28;;;20.10;;
42964;SDS011;28604;51.204;22.552;2023-08-31T02:37:11;38.10;;;20.23;;
42964;SDS011;28604;51.204;22.552;2023-08-31T02:39:37;44.83;;;23.85;;
42964;SDS011;28604;51.204;22.552;2023-08-31T02:42:03;43.75;;;23.17;;
42964;SDS011;28604;51.204;22.552;2023-08-31T02:44:30;51.88;;;25.95;;
42964;SDS011;28604;51.204;22.552;2023-08-31T02:46:57;57.75;;;26.33;;
42964;SDS011;28604;51.204;22.552;2023-08-31T02:49:23;54.35;;;25.10;;
42964;SDS011;28604;51.204;22.552;2023-08-31T02:51:49;54.95;;;23.98;;
42964;SDS011;28604;51.204;22.552;2023-08-31T02:54:15;52.95;;;24.88;;
42964;SDS011;28604;51.204;22.552;2023-08-31T02:56:41;48.90;;;22.67;;
42964;SDS011;28604;51.204;22.552;2023-08-31T02:59:07;42.88;;;20.48;;
42964;SDS011;28604;51.204;22.552;2023-08-31T03:01:34;43.42;;;19.10;;
42964;SDS011;28604;51.204;22.552;2023-08-31T03:04:00;38.85;;;17.38;;
42964;SDS011;28604;51.204;22.552;2023-08-31T03:06:26;35.25;;;16.65;;
42964;SDS011;28604;51.204;22.552;2023-08-31T03:08:52;31.27;;;16.20;;
42964;SDS011;28604;51.204;22.552;2023-08-31T03:11:18;32.20;;;15.02;;
42964;SDS011;28604;51.204;22.552;2023-08-31T03:13:44;27.73;;;14.65;;
42964;SDS011;28604;51.204;22.552;2023-08-31T03:16:11;28.40;;;13.40;;
42964;SDS011;28604;51.204;22.552;2023-08-31T03:18:37;29.15;;;13.75;;
42964;SDS011;28604;51.204;22.552;2023-08-31T03:21:03;24.45;;;12.05;;
42964;SDS011;28604;51.204;22.552;2023-08-31T03:23:29;23.15;;;11.32;;
42964;SDS011;28604;51.204;22.552;2023-08-31T03:25:56;17.13;;;10.18;;
42964;SDS011;28604;51.204;22.552;2023-08-31T03:28:25;13.43;;;8.40;;
42964;SDS011;28604;51.204;22.552;2023-08-31T03:30:55;13.77;;;9.68;;
42964;SDS011;28604;51.204;22.552;2023-08-31T03:33:22;12.45;;;9.35;;
42964;SDS011;28604;51.204;22.552;2023-08-31T03:35:48;11.38;;;9.13;;
42964;SDS011;28604;51.204;22.552;2023-08-31T03:38:14;10.80;;;8.82;;
42964;SDS011;28604;51.204;22.552;2023-08-31T03:40:40;10.00;;;9.00;;
42964;SDS011;28604;51.204;22.552;2023-08-31T03:43:06;11.02;;;9.55;;
42964;SDS011;28604;51.204;22.552;2023-08-31T03:45:32;11.85;;;10.18;;
42964;SDS011;28604;51.204;22.552;2023-08-31T03:47:58;10.98;;;9.57;;
42964;SDS011;28604;51.204;22.552;2023-08-31T03:50:24;10.48;;;9.43;;
42964;SDS011;28604;51.204;22.552;2023-08-31T03:52:50;14.00;;;10.38;;
42964;SDS011;28604;51.204;22.552;2023-08-31T03:55:16;10.95;;;9.85;;
42964;SDS011;28604;51.204;22.552;2023-08-31T03:57:42;11.60;;;10.38;;
42964;SDS011;28604;51.204;22.552;2023-08-31T04:00:16;13.38;;;10.95;;
42964;SDS011;28604;51.204;22.552;2023-08-31T04:02:42;12.05;;;9.90;;
42964;SDS011;28604;51.204;22.552;2023-08-31T04:05:11;12.20;;;10.95;;
42964;SDS011;28604;51.204;22.552;2023-08-31T04:07:42;13.27;;;10.75;;
42964;SDS011;28604;51.204;22.552;2023-08-31T04:10:08;11.52;;;10.43;;
42964;SDS011;28604;51.204;22.552;2023-08-31T04:12:34;12.13;;;10.88;;
42964;SDS011;28604;51.204;22.552;2023-08-31T04:15:00;12.60;;;11.18;;
42964;SDS011;28604;51.204;22.552;2023-08-31T04:17:26;16.75;;;11.43;;
42964;SDS011;28604;51.204;22.552;2023-08-31T04:19:52;12.27;;;10.23;;
42964;SDS011;28604;51.204;22.552;2023-08-31T04:22:19;13.77;;;11.13;;
42964;SDS011;28604;51.204;22.552;2023-08-31T04:24:45;12.00;;;10.77;;
42964;SDS011;28604;51.204;22.552;2023-08-31T04:27:11;12.13;;;10.95;;
42964;SDS011;28604;51.204;22.552;2023-08-31T04:29:37;13.18;;;11.02;;
42964;SDS011;28604;51.204;22.552;2023-08-31T04:32:03;12.10;;;10.88;;
42964;SDS011;28604;51.204;22.552;2023-08-31T04:34:29;11.98;;;10.48;;
42964;SDS011;28604;51.204;22.552;2023-08-31T04:36:55;11.85;;;10.50;;
42964;SDS011;28604;51.204;22.552;2023-08-31T04:39:21;14.00;;;11.40;;
42964;SDS011;28604;51.204;22.552;2023-08-31T04:41:47;13.63;;;12.23;;
42964;SDS011;28604;51.204;22.552;2023-08-31T04:44:13;13.98;;;12.45;;
42964;SDS011;28604;51.204;22.552;2023-08-31T04:46:39;13.70;;;12.30;;
42964;SDS011;28604;51.204;22.552;2023-08-31T04:49:05;13.75;;;12.35;;
42964;SDS011;28604;51.204;22.552;2023-08-31T04:51:32;14.10;;;12.65;;
42964;SDS011;28604;51.204;22.552;2023-08-31T04:53:59;14.23;;;12.73;;
42964;SDS011;28604;51.204;22.552;2023-08-31T04:56:29;15.88;;;13.82;;
42964;SDS011;28604;51.204;22.552;2023-08-31T04:58:59;16.88;;;13.30;;
42964;SDS011;28604;51.204;22.552;2023-08-31T05:01:26;15.07;;;13.18;;
42964;SDS011;28604;51.204;22.552;2023-08-31T05:03:52;15.60;;;13.70;;
42964;SDS011;28604;51.204;22.552;2023-08-31T05:06:17;13.80;;;12.50;;
42964;SDS011;28604;51.204;22.552;2023-08-31T05:08:43;13.70;;;12.18;;
42964;SDS011;28604;51.204;22.552;2023-08-31T05:11:09;12.45;;;11.25;;
42964;SDS011;28604;51.204;22.552;2023-08-31T05:13:35;13.13;;;11.27;;
42964;SDS011;28604;51.204;22.552;2023-08-31T05:16:03;13.25;;;11.38;;
42964;SDS011;28604;51.204;22.552;2023-08-31T05:18:29;12.05;;;10.68;;
42964;SDS011;28604;51.204;22.552;2023-08-31T05:20:55;11.75;;;10.55;;
42964;SDS011;28604;51.204;22.552;2023-08-31T05:23:21;11.88;;;10.77;;
42964;SDS011;28604;51.204;22.552;2023-08-31T05:25:47;11.25;;;10.15;;
42964;SDS011;28604;51.204;22.552;2023-08-31T05:28:13;11.07;;;9.95;;
42964;SDS011;28604;51.204;22.552;2023-08-31T05:30:52;11.48;;;10.48;;
42964;SDS011;28604;51.204;22.552;2023-08-31T05:33:20;10.90;;;9.90;;
42964;SDS011;28604;51.204;22.552;2023-08-31T05:35:52;10.00;;;8.88;;
42964;SDS011;28604;51.204;22.552;2023-08-31T05:38:18;10.38;;;9.35;;
42964;SDS011;28604;51.204;22.552;2023-08-31T05:40:44;10.60;;;9.70;;
42964;SDS011;28604;51.204;22.552;2023-08-31T05:43:13;12.38;;;9.93;;
42964;SDS011;28604;51.204;22.552;2023-08-31T05:45:40;10.40;;;9.50;;
42964;SDS011;28604;51.204;22.552;2023-08-31T05:48:06;10.45;;;9.45;;
42964;SDS011;28604;51.204;22.552;2023-08-31T05:50:33;10.48;;;9.50;;
42964;SDS011;28604;51.204;22.552;2023-08-31T05:52:59;9.70;;;9.00;;
42964;SDS011;28604;51.204;22.552;2023-08-31T05:55:24;10.65;;;9.65;;
42964;SDS011;28604;51.204;22.552;2023-08-31T05:57:50;11.48;;;9.80;;
42964;SDS011;28604;51.204;22.552;2023-08-31T06:00:16;9.27;;;8.57;;
42964;SDS011;28604;51.204;22.552;2023-08-31T06:02:43;11.02;;;8.35;;
42964;SDS011;28604;51.204;22.552;2023-08-31T06:05:12;9.85;;;9.07;;
42964;SDS011;28604;51.204;22.552;2023-08-31T06:07:42;10.50;;;9.40;;
42964;SDS011;28604;51.204;22.552;2023-08-31T06:10:08;9.60;;;8.77;;
42964;SDS011;28604;51.204;22.552;2023-08-31T06:12:35;9.82;;;9.00;;
42964;SDS011;28604;51.204;22.552;2023-08-31T06:15:02;11.00;;;8.75;;
42964;SDS011;28604;51.204;22.552;2023-08-31T06:17:28;9.70;;;8.55;;
42964;SDS011;28604;51.204;22.552;2023-08-31T06:19:54;8.93;;;8.02;;
42964;SDS011;28604;51.204;22.552;2023-08-31T06:22:20;9.18;;;8.38;;
42964;SDS011;28604;51.204;22.552;2023-08-31T06:24:48;9.73;;;8.57;;
42964;SDS011;28604;51.204;22.552;2023-08-31T06:27:14;10.00;;;9.00;;
42964;SDS011;28604;51.204;22.552;2023-08-31T06:29:41;10.27;;;9.38;;
42964;SDS011;28604;51.204;22.552;2023-08-31T06:32:07;12.20;;;9.40;;
42964;SDS011;28604;51.204;22.552;2023-08-31T06:34:33;11.88;;;9.35;;
42964;SDS011;28604;51.204;22.552;2023-08-31T06:37:00;10.45;;;9.45;;
42964;SDS011;28604;51.204;22.552;2023-08-31T06:39:26;10.23;;;9.27;;
42964;SDS011;28604;51.204;22.552;2023-08-31T06:41:52;10.10;;;9.20;;
42964;SDS011;28604;51.204;22.552;2023-08-31T06:44:20;10.10;;;9.15;;
42964;SDS011;28604;51.204;22.552;2023-08-31T06:46:46;8.50;;;7.80;;
42964;SDS011;28604;51.204;22.552;2023-08-31T06:49:11;8.63;;;7.93;;
42964;SDS011;28604;51.204;22.552;2023-08-31T06:51:37;8.27;;;7.65;;
42964;SDS011;28604;51.204;22.552;2023-08-31T06:54:03;7.53;;;6.93;;
42964;SDS011;28604;51.204;22.552;2023-08-31T06:56:33;6.82;;;6.32;;
42964;SDS011;28604;51.204;22.552;2023-08-31T06:58:59;6.22;;;5.82;;
42964;SDS011;28604;51.204;22.552;2023-08-31T07:01:25;6.03;;;5.53;;
42964;SDS011;28604;51.204;22.552;2023-08-31T07:03:53;5.57;;;5.18;;
42964;SDS011;28604;51.204;22.552;2023-08-31T07:06:19;6.00;;;5.60;;
42964;SDS011;28604;51.204;22.552;2023-08-31T07:08:45;5.50;;;5.10;;
42964;SDS011;28604;51.204;22.552;2023-08-31T07:11:12;5.15;;;4.70;;
42964;SDS011;28604;51.204;22.552;2023-08-31T07:13:38;4.25;;;3.95;;
42964;SDS011;28604;51.204;22.552;2023-08-31T07:16:05;4.07;;;3.70;;
42964;SDS011;28604;51.204;22.552;2023-08-31T07:18:31;4.53;;;4.07;;
42964;SDS011;28604;51.204;22.552;2023-08-31T07:20:57;5.18;;;3.85;;
42964;SDS011;28604;51.204;22.552;2023-08-31T07:23:23;6.93;;;4.80;;
42964;SDS011;28604;51.204;22.552;2023-08-31T07:25:49;4.22;;;3.90;;
42964;SDS011;28604;51.204;22.552;2023-08-31T07:28:15;3.28;;;3.08;;
42964;SDS011;28604;51.204;22.552;2023-08-31T07:30:41;4.28;;;3.97;;
42964;SDS011;28604;51.204;22.552;2023-08-31T07:33:07;4.13;;;3.75;;
42964;SDS011;28604;51.204;22.552;2023-08-31T07:35:33;4.10;;;3.78;;
42964;SDS011;28604;51.204;22.552;2023-08-31T07:37:58;4.43;;;4.20;;
42964;SDS011;28604;51.204;22.552;2023-08-31T07:40:25;3.78;;;3.67;;
42964;SDS011;28604;51.204;22.552;2023-08-31T07:42:51;3.95;;;3.33;;
42964;SDS011;28604;51.204;22.552;2023-08-31T07:45:17;3.35;;;3.25;;
42964;SDS011;28604;51.204;22.552;2023-08-31T07:47:43;5.85;;;3.17;;
42964;SDS011;28604;51.204;22.552;2023-08-31T07:50:10;3.58;;;3.47;;
42964;SDS011;28604;51.204;22.552;2023-08-31T07:52:36;3.42;;;3.05;;
42964;SDS011;28604;51.204;22.552;2023-08-31T07:55:03;3.70;;;2.72;;
42964;SDS011;28604;51.204;22.552;2023-08-31T07:57:29;2.78;;;2.63;;
42964;SDS011;28604;51.204;22.552;2023-08-31T07:59:55;3.70;;;3.40;;
42964;SDS011;28604;51.204;22.552;2023-08-31T08:02:21;3.13;;;2.90;;
42964;SDS011;28604;51.204;22.552;2023-08-31T08:04:47;6.22;;;5.72;;
42964;SDS011;28604;51.204;22.552;2023-08-31T08:07:13;2.75;;;2.60;;
42964;SDS011;28604;51.204;22.552;2023-08-31T08:09:39;2.25;;;2.15;;
42964;SDS011;28604;51.204;22.552;2023-08-31T08:12:05;2.15;;;2.05;;
42964;SDS011;28604;51.204;22.552;2023-08-31T08:14:32;1.65;;;1.65;;
42964;SDS011;28604;51.204;22.552;2023-08-31T08:16:58;2.08;;;1.98;;
42964;SDS011;28604;51.204;22.552;2023-08-31T08:19:25;4.60;;;2.55;;
42964;SDS011;28604;51.204;22.552;2023-08-31T08:21:51;1.77;;;1.67;;
42964;SDS011;28604;51.204;22.552;2023-08-31T08:24:17;1.70;;;1.63;;
42964;SDS011;28604;51.204;22.552;2023-08-31T08:26:43;1.38;;;1.35;;
42964;SDS011;28604;51.204;22.552;2023-08-31T08:29:09;1.55;;;1.55;;
42964;SDS011;28604;51.204;22.552;2023-08-31T08:31:35;1.30;;;1.20;;
42964;SDS011;28604;51.204;22.552;2023-08-31T08:34:01;1.55;;;1.02;;
42964;SDS011;28604;51.204;22.552;2023-08-31T08:36:28;1.90;;;1.70;;
42964;SDS011;28604;51.204;22.552;2023-08-31T08:38:55;1.20;;;1.20;;
42964;SDS011;28604;51.204;22.552;2023-08-31T08:41:22;1.20;;;1.20;;
42964;SDS011;28604;51.204;22.552;2023-08-31T08:43:50;2.10;;;1.20;;
42964;SDS011;28604;51.204;22.552;2023-08-31T08:46:17;1.65;;;1.15;;
42964;SDS011;28604;51.204;22.552;2023-08-31T08:48:44;1.30;;;1.27;;
42964;SDS011;28604;51.204;22.552;2023-08-31T08:51:12;1.45;;;1.45;;
42964;SDS011;28604;51.204;22.552;2023-08-31T08:53:40;4.38;;;1.73;;
42964;SDS011;28604;51.204;22.552;2023-08-31T08:56:08;1.98;;;1.67;;
42964;SDS011;28604;51.204;22.552;2023-08-31T08:58:34;5.90;;;2.15;;
42964;SDS011;28604;51.204;22.552;2023-08-31T09:01:00;1.67;;;1.50;;
42964;SDS011;28604;51.204;22.552;2023-08-31T09:03:27;1.13;;;1.10;;
42964;SDS011;28604;51.204;22.552;2023-08-31T09:05:53;3.15;;;1.10;;
42964;SDS011;28604;51.204;22.552;2023-08-31T09:08:26;4.13;;;1.25;;
42964;SDS011;28604;51.204;22.552;2023-08-31T09:10:54;1.00;;;1.00;;
42964;SDS011;28604;51.204;22.552;2023-08-31T09:13:25;0.77;;;0.77;;
42964;SDS011;28604;51.204;22.552;2023-08-31T09:15:54;0.68;;;0.50;;
42964;SDS011;28604;51.204;22.552;2023-08-31T09:20:51;0.70;;;0.63;;
42964;SDS011;28604;51.204;22.552;2023-08-31T09:23:18;0.80;;;0.50;;
42964;SDS011;28604;51.204;22.552;2023-08-31T09:25:46;0.60;;;0.60;;
42964;SDS011;28604;51.204;22.552;2023-08-31T09:28:17;0.50;;;0.50;;
42964;SDS011;28604;51.204;22.552;2023-08-31T09:30:45;0.77;;;0.77;;
42964;SDS011;28604;51.204;22.552;2023-08-31T09:33:14;1.98;;;0.38;;
42964;SDS011;28604;51.204;22.552;2023-08-31T09:35:52;1.40;;;0.93;;
42964;SDS011;28604;51.204;22.552;2023-08-31T09:38:19;0.82;;;0.55;;
42964;SDS011;28604;51.204;22.552;2023-08-31T09:40:45;0.60;;;0.60;;
42964;SDS011;28604;51.204;22.552;2023-08-31T09:43:12;0.30;;;0.30;;
42964;SDS011;28604;51.204;22.552;2023-08-31T09:45:44;0.20;;;0.20;;
42964;SDS011;28604;51.204;22.552;2023-08-31T09:48:10;3.33;;;0.80;;
42964;SDS011;28604;51.204;22.552;2023-08-31T09:50:36;0.32;;;0.25;;
42964;SDS011;28604;51.204;22.552;2023-08-31T09:53:04;0.88;;;0.35;;
42964;SDS011;28604;51.204;22.552;2023-08-31T09:55:32;1.58;;;0.50;;
42964;SDS011;28604;51.204;22.552;2023-08-31T09:57:58;0.82;;;0.40;;
42964;SDS011;28604;51.204;22.552;2023-08-31T10:00:26;0.40;;;0.40;;
42964;SDS011;28604;51.204;22.552;2023-08-31T10:03:00;0.55;;;0.10;;
42964;SDS011;28604;51.204;22.552;2023-08-31T10:05:27;0.25;;;0.25;;
42964;SDS011;28604;51.204;22.552;2023-08-31T10:07:54;0.82;;;0.47;;
42964;SDS011;28604;51.204;22.552;2023-08-31T10:10:20;0.55;;;0.30;;
42964;SDS011;28604;51.204;22.552;2023-08-31T10:12:50;0.30;;;0.30;;
42964;SDS011;28604;51.204;22.552;2023-08-31T10:15:17;0.30;;;0.30;;
42964;SDS011;28604;51.204;22.552;2023-08-31T10:17:44;0.65;;;0.55;;
42964;SDS011;28604;51.204;22.552;2023-08-31T10:20:11;0.93;;;0.20;;
42964;SDS011;28604;51.204;22.552;2023-08-31T10:22:39;0.10;;;0.10;;
42964;SDS011;28604;51.204;22.552;2023-08-31T10:25:06;0.17;;;0.17;;
42964;SDS011;28604;51.204;22.552;2023-08-31T10:27:40;0.30;;;0.20;;
42964;SDS011;28604;51.204;22.552;2023-08-31T10:38:15;0.10;;;0.10;;
42964;SDS011;28604;51.204;22.552;2023-08-31T10:46:42;0.15;;;0.10;;
42964;SDS011;28604;51.204;22.552;2023-08-31T10:51:35;0.98;;;0.10;;
42964;SDS011;28604;51.204;22.552;2023-08-31T10:54:06;0.10;;;0.10;;
42964;SDS011;28604;51.204;22.552;2023-08-31T10:59:26;1.30;;;0.20;;
42964;SDS011;28604;51.204;22.552;2023-08-31T11:02:06;0.15;;;0.15;;
42964;SDS011;28604;51.204;22.552;2023-08-31T11:04:52;0.20;;;0.10;;
42964;SDS011;28604;51.204;22.552;2023-08-31T11:07:26;0.17;;;0.17;;
42964;SDS011;28604;51.204;22.552;2023-08-31T11:10:05;0.13;;;0.13;;
42964;SDS011;28604;51.204;22.552;2023-08-31T11:12:51;1.00;;;0.17;;
42964;SDS011;28604;51.204;22.552;2023-08-31T11:15:20;0.73;;;0.10;;
42964;SDS011;28604;51.204;22.552;2023-08-31T11:17:49;1.20;;;0.20;;
42964;SDS011;28604;51.204;22.552;2023-08-31T11:20:17;0.47;;;0.10;;
42964;SDS011;28604;51.204;22.552;2023-08-31T11:22:48;0.20;;;0.20;;
42964;SDS011;28604;51.204;22.552;2023-08-31T11:25:16;0.70;;;0.10;;
42964;SDS011;28604;51.204;22.552;2023-08-31T11:27:52;1.80;;;0.10;;
42964;SDS011;28604;51.204;22.552;2023-08-31T11:30:31;0.70;;;0.10;;
42964;SDS011;28604;51.204;22.552;2023-08-31T11:33:02;0.60;;;0.30;;
42964;SDS011;28604;51.204;22.552;2023-08-31T11:35:35;0.13;;;0.13;;
42964;SDS011;28604;51.204;22.552;2023-08-31T11:38:03;0.10;;;0.10;;
42964;SDS011;28604;51.204;22.552;2023-08-31T11:40:29;0.32;;;0.25;;
42964;SDS011;28604;51.204;22.552;2023-08-31T11:42:56;0.35;;;0.20;;
42964;SDS011;28604;51.204;22.552;2023-08-31T11:45:25;0.20;;;0.20;;
42964;SDS011;28604;51.204;22.552;2023-08-31T11:47:52;0.20;;;0.20;;
42964;SDS011;28604;51.204;22.552;2023-08-31T11:50:19;0.10;;;0.10;;
42964;SDS011;28604;51.204;22.552;2023-08-31T11:52:47;0.30;;;0.30;;
42964;SDS011;28604;51.204;22.552;2023-08-31T11:55:14;0.85;;;0.50;;
42964;SDS011;28604;51.204;22.552;2023-08-31T11:57:50;0.20;;;0.20;;
42964;SDS011;28604;51.204;22.552;2023-08-31T12:00:17;0.20;;;0.20;;
42964;SDS011;28604;51.204;22.552;2023-08-31T12:02:45;1.58;;;0.10;;
42964;SDS011;28604;51.204;22.552;2023-08-31T12:05:14;0.60;;;0.30;;
42964;SDS011;28604;51.204;22.552;2023-08-31T12:07:40;0.68;;;0.50;;
42964;SDS011;28604;51.204;22.552;2023-08-31T12:10:07;0.60;;;0.60;;
42964;SDS011;28604;51.204;22.552;2023-08-31T12:12:34;1.63;;;0.50;;
42964;SDS011;28604;51.204;22.552;2023-08-31T12:15:02;0.98;;;0.35;;
42964;SDS011;28604;51.204;22.552;2023-08-31T12:17:31;2.65;;;0.50;;
42964;SDS011;28604;51.204;22.552;2023-08-31T12:20:04;0.30;;;0.30;;
42964;SDS011;28604;51.204;22.552;2023-08-31T12:22:30;0.55;;;0.32;;
42964;SDS011;28604;51.204;22.552;2023-08-31T12:24:57;0.38;;;0.30;;
42964;SDS011;28604;51.204;22.552;2023-08-31T12:27:22;2.92;;;0.22;;
42964;SDS011;28604;51.204;22.552;2023-08-31T12:29:48;0.30;;;0.20;;
42964;SDS011;28604;51.204;22.552;2023-08-31T12:32:16;0.40;;;0.30;;
42964;SDS011;28604;51.204;22.552;2023-08-31T12:34:45;1.00;;;0.32;;
42964;SDS011;28604;51.204;22.552;2023-08-31T12:37:11;0.45;;;0.43;;
42964;SDS011;28604;51.204;22.552;2023-08-31T12:39:37;0.73;;;0.22;;
42964;SDS011;28604;51.204;22.552;2023-08-31T12:42:03;0.70;;;0.43;;
42964;SDS011;28604;51.204;22.552;2023-08-31T12:44:30;1.17;;;0.30;;
42964;SDS011;28604;51.204;22.552;2023-08-31T12:46:56;1.85;;;0.60;;
42964;SDS011;28604;51.204;22.552;2023-08-31T12:49:22;1.50;;;0.60;;
42964;SDS011;28604;51.204;22.552;2023-08-31T12:51:48;0.93;;;0.32;;
42964;SDS011;28604;51.204;22.552;2023-08-31T12:54:16;3.60;;;0.30;;
42964;SDS011;28604;51.204;22.552;2023-08-31T12:56:42;1.35;;;0.45;;
42964;SDS011;28604;51.204;22.552;2023-08-31T12:59:09;0.30;;;0.22;;
42964;SDS011;28604;51.204;22.552;2023-08-31T13:01:37;0.75;;;0.50;;
42964;SDS011;28604;51.204;22.552;2023-08-31T13:04:03;0.45;;;0.45;;
42964;SDS011;28604;51.204;22.552;2023-08-31T13:06:30;0.30;;;0.30;;
42964;SDS011;28604;51.204;22.552;2023-08-31T13:08:56;4.78;;;0.40;;
42964;SDS011;28604;51.204;22.552;2023-08-31T13:11:22;1.08;;;0.40;;
42964;SDS011;28604;51.204;22.552;2023-08-31T13:13:51;0.57;;;0.40;;
42964;SDS011;28604;51.204;22.552;2023-08-31T13:16:17;0.68;;;0.60;;
42964;SDS011;28604;51.204;22.552;2023-08-31T13:18:43;0.57;;;0.57;;
42964;SDS011;28604;51.204;22.552;2023-08-31T13:21:09;0.47;;;0.47;;
42964;SDS011;28604;51.204;22.552;2023-08-31T13:23:35;0.40;;;0.40;;
42964;SDS011;28604;51.204;22.552;2023-08-31T13:26:00;0.20;;;0.20;;
42964;SDS011;28604;51.204;22.552;2023-08-31T13:28:27;0.20;;;0.20;;
42964;SDS011;28604;51.204;22.552;2023-08-31T13:30:56;0.57;;;0.57;;
42964;SDS011;28604;51.204;22.552;2023-08-31T13:33:26;0.95;;;0.30;;
42964;SDS011;28604;51.204;22.552;2023-08-31T13:35:58;0.47;;;0.47;;
42964;SDS011;28604;51.204;22.552;2023-08-31T13:38:25;1.13;;;0.80;;
42964;SDS011;28604;51.204;22.552;2023-08-31T13:40:54;2.40;;;0.45;;
42964;SDS011;28604;51.204;22.552;2023-08-31T13:43:22;0.38;;;0.38;;
42964;SDS011;28604;51.204;22.552;2023-08-31T13:45:49;0.60;;;0.43;;
42964;SDS011;28604;51.204;22.552;2023-08-31T13:48:15;0.40;;;0.30;;
42964;SDS011;28604;51.204;22.552;2023-08-31T13:50:41;0.85;;;0.40;;
42964;SDS011;28604;51.204;22.552;2023-08-31T13:53:08;1.85;;;0.57;;
42964;SDS011;28604;51.204;22.552;2023-08-31T13:55:34;2.45;;;0.40;;
42964;SDS011;28604;51.204;22.552;2023-08-31T13:58:04;3.75;;;0.32;;
42964;SDS011;28604;51.204;22.552;2023-08-31T14:00:33;0.80;;;0.63;;
42964;SDS011;28604;51.204;22.552;2023-08-31T14:03:00;1.27;;;1.08;;
42964;SDS011;28604;51.204;22.552;2023-08-31T14:05:29;3.95;;;0.68;;
42964;SDS011;28604;51.204;22.552;2023-08-31T14:07:55;0.75;;;0.75;;
42964;SDS011;28604;51.204;22.552;2023-08-31T14:10:23;1.10;;;0.85;;
42964;SDS011;28604;51.204;22.552;2023-08-31T14:12:50;2.55;;;0.60;;
42964;SDS011;28604;51.204;22.552;2023-08-31T14:15:16;0.63;;;0.63;;
42964;SDS011;28604;51.204;22.552;2023-08-31T14:17:42;3.13;;;1.10;;
42964;SDS011;28604;51.204;22.552;2023-08-31T14:20:08;0.73;;;0.73;;
42964;SDS011;28604;51.204;22.552;2023-08-31T14:22:35;1.13;;;1.13;;
42964;SDS011;28604;51.204;22.552;2023-08-31T14:25:01;1.05;;;0.95;;
42964;SDS011;28604;51.204;22.552;2023-08-31T14:27:29;3.13;;;1.13;;
42964;SDS011;28604;51.204;22.552;2023-08-31T14:29:58;2.67;;;1.13;;
42964;SDS011;28604;51.204;22.552;2023-08-31T14:32:24;3.55;;;1.00;;
42964;SDS011;28604;51.204;22.552;2023-08-31T14:34:50;1.17;;;0.90;;
42964;SDS011;28604;51.204;22.552;2023-08-31T14:37:16;2.88;;;0.90;;
42964;SDS011;28604;51.204;22.552;2023-08-31T14:39:42;1.05;;;0.63;;
42964;SDS011;28604;51.204;22.552;2023-08-31T14:42:08;2.05;;;0.90;;
42964;SDS011;28604;51.204;22.552;2023-08-31T14:44:34;0.60;;;0.60;;
42964;SDS011;28604;51.204;22.552;2023-08-31T14:47:00;0.75;;;0.75;;
42964;SDS011;28604;51.204;22.552;2023-08-31T14:49:26;4.03;;;1.25;;
42964;SDS011;28604;51.204;22.552;2023-08-31T14:51:52;1.08;;;0.90;;
42964;SDS011;28604;51.204;22.552;2023-08-31T14:54:18;0.75;;;0.75;;